Central Fund of Canada Limited (USA) (NYSEMKT:CEF)

CAPS Rating: 3 out of 5

Provides an investment alternative for investors interested in holding marketable gold and silver related investments. Invests primarily in long-term holdings of gold and silver bullion.

Results 1 - 99 of 738 : 1 2 3 4 5 6 7 8 Next »
Top
Pick
Member Name Member
Rating
Start
Date
Call Time
Frame
Start
Price
Stock
Gain
Index
Gain
Score Commentary
bocacampeon 93.67 3/31/2014 Outperform 5Y $13.85 -0.51% -0.28% -0.22 0 Comment
Momentum22 30.16 3/18/2014 Outperform 5Y $14.74 -6.51% -0.80% -5.71 0 Comment
goingdown < 20 3/12/2014 Outperform 5Y $14.84 -7.12% -0.22% -6.89 0 Comment
Xucolat 58.30 11/17/2009 2/17/2014 Outperform 5Y $13.94 -1.15% +67.80% -68.95 1 Comment
This player feels very strongly about this pick and has marked it a Top Pick. Top Picks do not affect a player’s score. AsianMatter 52.80 2/4/2014 Outperform 5Y $13.73 +0.33% +6.12% -5.80 1 Comment
unixopsys 48.04 1/22/2014 Outperform 1Y $13.57 +1.55% +0.94% +0.61 0 Comment
wackyfunster 82.26 1/16/2014 Outperform 5Y $13.67 +0.80% +1.00% -0.20 0 Comment
2win < 20 1/14/2014 Outperform NS $13.87 -0.65% +2.11% -2.76 1 Comment
timomimo 83.75 1/2/2014 Outperform 5Y $13.58 +1.47% +1.76% -0.29 0 Comment
BrodyBorder 24.52 12/5/2013 Outperform 5Y $13.30 +3.61% +3.77% -0.16 0 Comment
emptylarder 24.83 11/13/2013 Outperform 5Y $13.98 -1.43% +4.85% -6.28 0 Comment
MattCap 57.29 10/29/2013 Outperform 3Y $15.22 -9.46% +5.25% -14.71 0 Comment
seakat45 < 20 10/14/2013 Outperform 5Y $14.15 -2.62% +10.00% -12.62 0 Comment
BruceInCola 98.68 9/24/2013 Outperform 5Y $14.40 -4.31% +9.55% -13.86 0 Comment
maxy88 29.10 9/10/2013 Outperform 5Y $15.55 -11.39% +10.47% -21.86 0 Comment
mistermiranga 98.29 8/27/2013 Outperform 5Y $16.63 -17.11% +13.44% -30.56 0 Comment
kurtdabear 32.18 8/23/2013 Outperform 5Y $16.21 -14.99% +11.92% -26.91 1 Comment
aguadaboca 33.17 7/30/2013 Outperform 5Y $14.42 -4.44% +10.07% -14.51 0 Comment
sail2brasil 40.58 7/24/2013 Outperform 5Y $14.82 -7.02% +10.23% -17.25 0 Comment
winebroker2000 < 20 7/24/2013 Outperform 5Y $14.80 -6.89% +9.62% -16.51 0 Comment
Rangergold67 < 20 7/15/2013 Outperform 5Y $14.19 -2.89% +10.81% -13.70 0 Comment
bigmacm22 < 20 7/12/2013 Outperform 5Y $14.15 -2.62% +11.19% -13.81 0 Comment
cashsage 29.53 7/8/2013 Outperform 5Y $13.62 +1.17% +13.55% -12.38 0 Comment
Adam1226 34.09 1/19/2010 7/6/2013 Outperform 5Y $14.35 -3.97% +62.50% -66.47 1 Comment
Swimms 75.87 6/21/2013 Outperform 5Y $14.14 -2.55% +17.14% -19.69 0 Comment
Stas3000 87.63 6/18/2013 Outperform 5Y $15.49 -11.04% +12.95% -23.99 0 Comment
Momentum21 96.83 5/24/2013 Outperform 5Y $15.71 -12.28% +13.17% -25.45 0 Comment
u2monee < 20 5/21/2013 Outperform 5Y $15.53 -11.27% +11.40% -22.67 0 Comment
SellOrNotinMay < 20 5/2/2013 Outperform 3M $16.82 -18.07% +16.54% -34.61 0 Comment
brightsideLP 97.46 5/1/2013 Outperform 3M $16.54 -16.68% +16.90% -33.58 0 Comment
iannnn 29.24 4/19/2013 Outperform 5Y $16.30 -15.46% +20.47% -35.93 0 Comment
binve < 20 4/18/2013 Outperform NS $16.13 -14.57% +20.37% -34.93 0 Comment
kainvest 45.32 4/16/2013 Outperform 1Y $16.47 -16.33% +18.71% -35.04 1 Comment
vinelli 82.23 4/15/2013 Outperform 5Y $16.03 -14.04% +17.91% -31.95 0 Comment
goldminer11 < 20 4/15/2013 Outperform 5Y $16.08 -14.30% +17.86% -32.16 0 Comment
TheBest70 < 20 3/22/2013 Outperform 5Y $19.76 -30.25% +19.91% -50.16 0 Comment
Terok1313 32.28 3/8/2013 Outperform 3Y $19.56 -29.54% +19.86% -49.40 0 Comment
tinyworld < 20 3/7/2013 Outperform 1Y $19.74 -30.18% +20.31% -50.50 1 Comment
rzld36 30.37 3/6/2013 Outperform 5Y $19.46 -29.18% +20.20% -49.38 0 Comment
VeryShiny < 20 3/5/2013 Outperform 3M $19.65 -29.86% +21.13% -50.99 0 Comment
OoohShiny < 20 2/25/2013 Outperform 3M $20.01 -31.12% +22.90% -54.02 0 Comment
Gloriness < 20 2/21/2013 Outperform 3M $19.63 -29.79% +23.61% -53.40 0 Comment
IndianaLarry < 20 2/19/2013 Underperform 3M $20.17 -31.67% +22.15% +53.82 0 Comment
This player feels very strongly about this pick and has marked it a Top Pick. Top Picks do not affect a player’s score. rd80 98.69 2/4/2013 Outperform 5Y $21.49 -35.86% +23.82% -59.68 1 Comment
JeffersonAdams 82.41 3/26/2008 1/29/2013 Outperform 5Y $13.26 +3.95% +43.55% -39.61 0 Comment
galpick 46.58 10/1/2008 1/27/2013 Outperform 5Y $10.95 +25.89% +65.81% -39.92 0 Comment
Vince1172 23.24 1/24/2013 Outperform 5Y $21.90 -37.06% +24.79% -61.86 0 Comment
piesyor < 20 1/22/2013 Underperform 1Y $21.94 -37.18% +25.48% +62.66 0 Comment
jerryguru69 93.78 12/13/2012 Underperform 5Y $22.41 -38.50% +29.78% +68.27 0 Comment
bolthole22 < 20 11/27/2012 Outperform 5Y $23.13 -40.42% +32.40% -72.82 0 Comment
Adenovir 77.76 8/31/2007 11/26/2012 Outperform NS $9.07 +51.85% +32.69% +19.16 1 Comment
acesurewould < 20 11/19/2012 Outperform 5Y $22.88 -39.76% +34.44% -74.20 0 Comment
JoeleneW 79.21 10/19/2007 10/1/2012 Outperform 5Y $10.08 +36.71% +27.37% +9.33 0 Comment
whatevmatil < 20 9/28/2012 Outperform 5Y $23.79 -42.09% +29.17% -71.26 0 Comment
tad40 99.71 9/24/2012 Outperform 5Y $23.40 -41.12% +28.23% -69.35 0 Comment
stockdatamaster 93.57 9/19/2012 Outperform 5Y $23.86 -42.26% +26.80% -69.05 0 Comment
gman444 29.13 9/5/2012 Outperform 5Y $22.34 -38.30% +31.92% -70.22 0 Comment
puccini3005 29.86 6/24/2009 8/27/2012 Outperform 3Y $11.75 +17.32% +107.52% -90.21 1 Comment
tcpprog < 20 8/24/2012 Outperform 5Y $21.32 -35.36% +32.65% -68.01 0 Comment
oldfashionedway 35.72 8/23/2011 8/22/2012 Outperform 3Y $25.13 -45.17% +61.62% -106.79 0 Comment
Moekie < 20 8/6/2012 Outperform 5Y $20.14 -31.56% +32.84% -64.41 0 Comment
This player feels very strongly about this pick and has marked it a Top Pick. Top Picks do not affect a player’s score. DarthMaul09 29.95 7/31/2012 Outperform 5Y $20.10 -31.44% +34.54% -65.98 1 Comment
rock338xxx < 20 6/7/2012 Outperform 5Y $20.98 -34.31% +39.45% -73.76 0 Comment
DanCooper76 < 20 6/1/2012 Outperform 5Y $19.62 -29.76% +44.14% -73.90 1 Comment
VanWilder < 20 5/11/2012 Outperform 5Y $19.79 -30.36% +36.76% -67.12 0 Comment
jkens < 20 10/29/2007 5/5/2012 Outperform 5Y $10.36 +33.03% +26.69% +6.35 0 Comment
marcd77 < 20 5/2/2012 Outperform 3Y $20.98 -34.31% +33.02% -67.33 0 Comment
phatchips767 < 20 4/24/2012 Outperform 1Y $21.09 -34.65% +35.95% -70.60 1 Comment
RockyMountainMan 98.28 4/10/2012 Outperform 5Y $21.39 -35.57% +34.92% -70.49 0 Comment
motleyanimal 93.75 2/29/2012 Outperform NS $22.93 -39.91% +35.76% -75.67 0 Comment
eeibbay < 20 11/30/2011 Outperform 5Y $22.30 -38.22% +50.03% -88.25 0 Comment
elboxeo < 20 11/25/2011 Outperform 5Y $21.41 -35.63% +59.93% -95.56 0 Comment
RallyCry < 20 11/23/2011 Outperform 5Y $21.69 -36.46% +57.64% -94.10 0 Comment
jdill23 20.10 11/22/2011 Outperform 1Y $22.05 -37.49% +56.33% -93.82 0 Comment
G8BigBoom 70.85 11/14/2011 Underperform 5Y $23.37 -41.05% +47.50% +88.54 0 Comment
LZAG < 20 11/11/2011 Outperform 5Y $23.38 -41.07% +47.92% -88.99 0 Comment
dss1343 < 20 11/3/2011 Outperform 1Y $23.02 -40.15% +49.23% -89.38 0 Comment
eldonbmyrtlbch < 20 10/28/2011 Outperform 3Y $23.26 -40.77% +45.41% -86.18 0 Comment
taylor2123 < 20 10/20/2011 Outperform 5Y $20.40 -32.45% +53.43% -85.88 0 Comment
Teknowizz 97.86 10/10/2011 Outperform 5Y $21.60 -36.19% +58.16% -94.36 0 Comment
dyskinetic 24.54 10/4/2011 Outperform 5Y $20.18 -31.71% +70.71% -102.42 0 Comment
JFiege 30.49 10/4/2011 Outperform 5Y $20.20 -31.78% +70.32% -102.10 0 Comment
squirrelgiggin 99.80 10/3/2011 Underperform 5Y $21.21 -35.02% +65.46% +100.48 0 Comment
Spyrig < 20 9/30/2011 Outperform 5Y $20.87 -33.97% +62.41% -96.38 0 Comment
veronafonte < 20 9/28/2011 Outperform 1Y $20.57 -33.02% +60.55% -93.57 0 Comment
mountaincouger 30.71 9/27/2011 Outperform 5Y $22.06 -37.52% +56.33% -93.85 0 Comment
Merlyn144 29.50 9/26/2011 Outperform 5Y $20.95 -34.22% +62.92% -97.14 0 Comment
cvdynasty2 99.86 9/26/2011 Outperform 5Y $21.01 -34.41% +62.05% -96.46 0 Comment
Fudex < 20 9/26/2011 Outperform 5Y $20.39 -32.41% +62.40% -94.81 0 Comment
This player feels very strongly about this pick and has marked it a Top Pick. Top Picks do not affect a player’s score. SamTheHobbit 30.18 9/23/2011 Outperform 5Y $20.99 -34.34% +64.33% -98.68 0 Comment
cvdynasty 99.95 9/23/2011 Outperform 5Y $20.99 -34.34% +64.33% -98.68 0 Comment
cecamadocv2 99.97 9/23/2011 Outperform 5Y $21.14 -34.81% +63.73% -98.53 0 Comment
EGTalbot < 20 9/23/2011 Outperform 3Y $21.70 -36.49% +64.13% -100.62 0 Comment
imobillc < 20 9/22/2011 Outperform 5Y $23.89 -42.33% +64.35% -106.68 0 Comment
pfoods6 < 20 9/20/2011 Outperform 1Y $25.18 -45.28% +54.46% -99.74 0 Comment
scluffman < 20 9/22/2010 9/17/2011 Outperform 3Y $16.34 -15.64% +63.99% -79.63 0 Comment
MathMusic 90.78 8/9/2011 9/15/2011 Outperform 1Y $22.88 -39.77% +62.41% -102.18 1 Comment
stationfool 66.30 9/14/2011 Outperform 5Y $25.05 -44.99% +56.74% -101.73 1 Comment
peachberrytea 74.00 9/13/2011 Outperform NS $24.55 -43.87% +59.01% -102.89 0 Comment

Featured Broker Partners


Advertisement